createdAt,value
2018-12-22T00:00:30.474Z,100410.34
2018-12-22T00:02:59.772Z,100397.62
2018-12-22T00:05:29.034Z,100409.03
2018-12-22T00:07:58.659Z,100412.59
2018-12-22T00:10:27.987Z,100399.56
2018-12-22T00:12:57.245Z,100411.78
2018-12-22T00:15:26.561Z,100395.99
2018-12-22T00:17:55.921Z,100415.31
2018-12-22T00:20:25.147Z,100409.77
2018-12-22T00:22:54.436Z,100420.83
2018-12-22T00:25:23.692Z,100419.58
2018-12-22T00:27:52.976Z,100417.84
2018-12-22T00:30:22.299Z,100418.77
2018-12-22T00:32:51.585Z,100425.86
2018-12-22T00:35:20.902Z,100446.16
2018-12-22T00:37:50.187Z,100426.13
2018-12-22T00:40:19.519Z,100444.23
2018-12-22T00:42:48.879Z,100450.83
2018-12-22T00:45:18.225Z,100443.84
2018-12-22T00:47:47.456Z,100446.13
2018-12-22T00:50:16.796Z,100460.75
2018-12-22T00:52:46.102Z,100467.70
2018-12-22T00:55:15.388Z,100463.27
2018-12-22T00:57:44.713Z,100475.25
2018-12-22T01:00:14.005Z,100470.72
2018-12-22T01:02:43.253Z,100465.02
2018-12-22T01:05:12.504Z,100472.94
2018-12-22T01:07:41.871Z,100471.19
2018-12-22T01:10:11.126Z,100478.75
2018-12-22T01:12:40.400Z,100480.88
2018-12-22T01:15:09.696Z,100475.64
2018-12-22T01:17:38.964Z,100474.75
2018-12-22T01:20:09.032Z,100483.12
2018-12-22T01:22:38.355Z,100483.05
2018-12-22T01:25:07.580Z,100496.31
2018-12-22T01:27:36.946Z,100491.44
2018-12-22T01:30:07.158Z,100510.40
2018-12-22T01:32:36.486Z,100510.05
2018-12-22T01:35:05.844Z,100516.13
2018-12-22T01:37:35.180Z,100509.50
2018-12-22T01:40:04.850Z,100492.55
2018-12-22T01:42:34.194Z,100521.13
2018-12-22T01:45:03.468Z,100532.56
2018-12-22T01:47:32.780Z,100530.68
2018-12-22T01:50:02.026Z,100526.44
2018-12-22T01:52:31.296Z,100540.65
2018-12-22T01:55:00.558Z,100543.72
2018-12-22T01:57:29.831Z,100542.75
2018-12-22T01:59:59.066Z,100542.47
2018-12-22T02:02:28.358Z,100539.47
2018-12-22T02:04:57.696Z,100534.66
2018-12-22T02:07:26.947Z,100536.16
2018-12-22T02:09:56.303Z,100529.66
2018-12-22T02:12:25.676Z,100532.01
2018-12-22T02:14:54.830Z,100541.34
2018-12-22T02:17:24.258Z,100551.05
2018-12-22T02:19:53.540Z,100558.50
2018-12-22T02:22:22.882Z,100543.97
2018-12-22T02:24:52.180Z,100546.17
2018-12-22T02:27:21.467Z,100560.58
2018-12-22T02:29:50.783Z,100552.37
2018-12-22T02:32:20.184Z,100555.83
2018-12-22T02:34:49.521Z,100565.09
2018-12-22T02:37:18.782Z,100556.09
2018-12-22T02:39:48.040Z,100557.81
2018-12-22T02:42:17.302Z,100565.78
2018-12-22T02:44:46.719Z,100550.45
2018-12-22T02:47:15.981Z,100559.59
2018-12-22T02:49:45.271Z,100556.98
2018-12-22T02:52:14.594Z,100568.09
2018-12-22T02:54:43.889Z,100564.96
2018-12-22T02:57:13.142Z,100574.58
2018-12-22T02:59:42.364Z,100572.56
2018-12-22T03:02:11.712Z,100576.23
2018-12-22T03:04:41.101Z,100565.22
2018-12-22T03:07:10.429Z,100578.41
2018-12-22T03:09:39.706Z,100565.78
2018-12-22T03:12:09.023Z,100578.05
2018-12-22T03:14:38.298Z,100568.06
2018-12-22T03:17:07.575Z,100566.17
2018-12-22T03:19:36.895Z,100555.53
2018-12-22T03:22:06.173Z,100555.99
2018-12-22T03:24:35.427Z,100553.95
2018-12-22T03:27:04.728Z,100558.86
2018-12-22T03:29:33.983Z,100558.05
2018-12-22T03:32:03.341Z,100561.11
2018-12-22T03:34:32.591Z,100547.20
2018-12-22T03:37:01.922Z,100547.77
2018-12-22T03:39:31.185Z,100547.83
2018-12-22T03:42:00.536Z,100377.06
2018-12-22T03:44:29.807Z,100547.50
2018-12-22T03:46:59.244Z,100555.31
2018-12-22T03:49:28.460Z,100551.39
2018-12-22T03:51:57.851Z,100546.12
2018-12-22T03:54:27.226Z,100548.30
2018-12-22T03:56:56.480Z,100546.58
2018-12-22T03:59:25.847Z,100554.12
2018-12-22T04:01:55.137Z,100550.47
2018-12-22T04:04:24.381Z,100556.20
2018-12-22T04:06:53.673Z,100550.40
2018-12-22T04:09:22.920Z,100555.31
2018-12-22T04:11:52.246Z,100554.03
2018-12-22T04:14:21.517Z,100548.00
2018-12-22T04:16:50.818Z,100553.27
2018-12-22T04:19:20.058Z,100555.34
2018-12-22T04:21:49.372Z,100549.67
2018-12-22T04:24:18.699Z,100553.17
2018-12-22T04:26:48.039Z,100555.84
2018-12-22T04:29:17.309Z,100562.78
2018-12-22T04:31:46.645Z,100564.53
2018-12-22T04:34:15.913Z,100558.94
2018-12-22T04:36:45.156Z,100561.27
2018-12-22T04:39:14.432Z,100570.40
2018-12-22T04:41:43.688Z,100569.17
2018-12-22T04:44:13.067Z,100565.72
2018-12-22T04:46:42.317Z,100560.91
2018-12-22T04:49:11.609Z,100559.89
2018-12-22T04:51:40.977Z,100562.75
2018-12-22T04:54:10.427Z,100558.86
2018-12-22T04:56:39.745Z,100557.58
2018-12-22T04:59:09.015Z,100561.10
2018-12-22T05:01:38.453Z,100562.95
2018-12-22T05:04:07.725Z,100563.38
2018-12-22T05:06:36.951Z,100562.55
2018-12-22T05:09:07.299Z,100565.12
2018-12-22T05:11:36.575Z,100558.99
2018-12-22T05:14:05.855Z,100559.95
2018-12-22T05:16:35.154Z,100553.88
2018-12-22T05:19:04.419Z,100552.20
2018-12-22T05:21:36.249Z,100555.27
2018-12-22T05:24:05.455Z,100552.63
2018-12-22T05:26:34.710Z,100546.56
2018-12-22T05:29:04.054Z,100543.97
2018-12-22T05:31:33.330Z,100539.88
2018-12-22T05:34:02.582Z,100544.99
2018-12-22T05:36:31.961Z,100543.73
2018-12-22T05:39:01.161Z,100537.98
2018-12-22T05:41:30.470Z,100541.01
2018-12-22T05:43:59.812Z,100539.33
2018-12-22T05:46:29.108Z,100537.42
2018-12-22T05:48:58.404Z,100535.18
2018-12-22T05:51:27.743Z,100529.55
2018-12-22T05:53:57.093Z,100525.43
2018-12-22T05:56:26.345Z,100523.48
2018-12-22T05:58:55.640Z,100520.48
2018-12-22T06:01:24.988Z,100525.79
2018-12-22T06:03:54.294Z,100530.23
2018-12-22T06:06:23.569Z,100526.84
2018-12-22T06:08:52.889Z,100532.11
2018-12-22T06:11:22.178Z,100532.02
2018-12-22T06:13:51.402Z,100536.52
2018-12-22T06:16:20.795Z,100545.71
2018-12-22T06:18:50.171Z,100547.42
2018-12-22T06:21:19.596Z,100546.93
2018-12-22T06:23:48.857Z,100550.45
2018-12-22T06:26:18.141Z,100547.36
2018-12-22T06:28:47.403Z,100553.61
2018-12-22T06:31:16.716Z,100556.73
2018-12-22T06:33:46.001Z,100552.79
2018-12-22T06:36:15.266Z,100555.91
2018-12-22T06:38:46.825Z,100558.95
2018-12-22T06:41:16.128Z,100558.24
2018-12-22T06:43:45.416Z,100557.88
2018-12-22T06:46:14.703Z,100564.95
2018-12-22T06:48:44.026Z,100564.09
2018-12-22T06:51:13.369Z,100563.20
2018-12-22T06:53:42.664Z,100569.39
2018-12-22T06:56:11.979Z,100563.76
2018-12-22T06:58:41.261Z,100573.05
2018-12-22T07:01:10.527Z,100572.67
2018-12-22T07:03:39.824Z,100577.51
2018-12-22T07:06:09.236Z,100580.97
2018-12-22T07:08:38.436Z,100581.44
2018-12-22T07:11:07.731Z,100572.67
2018-12-22T07:13:37.046Z,100579.75
2018-12-22T07:16:07.495Z,100589.88
2018-12-22T07:18:35.625Z,100593.89
2018-12-22T07:21:04.917Z,100599.68
2018-12-22T07:23:34.214Z,100603.26
2018-12-22T07:26:03.504Z,100605.03
2018-12-22T07:28:32.843Z,100604.23
2018-12-22T07:31:02.169Z,100609.13
2018-12-22T07:33:31.481Z,100607.78
2018-12-22T07:36:00.755Z,100608.73
2018-12-22T07:38:30.032Z,100611.39
2018-12-22T07:40:59.350Z,100618.86
2018-12-22T07:43:28.782Z,100621.89
2018-12-22T07:45:58.032Z,100620.11
2018-12-22T07:48:27.376Z,100622.72
2018-12-22T07:50:56.664Z,100625.75
2018-12-22T07:53:25.993Z,100636.63
2018-12-22T07:55:55.261Z,100642.75
2018-12-22T07:58:24.581Z,100637.58
2018-12-22T08:00:53.837Z,100643.61
2018-12-22T08:03:23.157Z,100651.71
2018-12-22T08:05:52.452Z,100660.16
2018-12-22T08:08:23.681Z,100663.27
2018-12-22T08:10:51.086Z,100673.41
2018-12-22T08:13:20.393Z,100678.19
2018-12-22T08:15:49.702Z,100687.87
2018-12-22T08:18:18.926Z,100693.15
2018-12-22T08:20:48.225Z,100705.39
2018-12-22T08:23:17.494Z,100708.00
2018-12-22T08:25:46.977Z,100711.02
2018-12-22T08:28:16.327Z,100718.53
2018-12-22T08:30:48.745Z,100714.98
2018-12-22T08:33:15.029Z,100721.46
2018-12-22T08:35:47.001Z,100721.30
2018-12-22T08:38:13.594Z,100733.06
2018-12-22T08:40:43.304Z,100731.34
2018-12-22T08:43:12.659Z,100733.98
2018-12-22T08:45:42.281Z,100735.21
2018-12-22T08:48:11.611Z,100740.96
2018-12-22T08:50:44.633Z,100740.67
2018-12-22T08:53:13.968Z,100758.48
2018-12-22T08:55:45.983Z,100769.16
2018-12-22T08:58:15.542Z,100781.02
2018-12-22T09:00:52.073Z,100793.39
2018-12-22T09:03:14.191Z,100797.90
2018-12-22T09:05:43.464Z,100805.82
2018-12-22T09:08:12.795Z,100802.81
2018-12-22T09:10:42.038Z,100817.74
2018-12-22T09:13:11.366Z,100829.05
2018-12-22T09:15:40.666Z,100665.06
2018-12-22T09:18:09.954Z,100838.50
2018-12-22T09:20:39.290Z,100843.74
2018-12-22T09:23:08.558Z,100855.88
2018-12-22T09:25:37.854Z,100853.09
2018-12-22T09:28:07.154Z,100858.38
2018-12-22T09:30:36.428Z,100860.91
2018-12-22T09:33:05.780Z,100866.17
2018-12-22T09:35:35.083Z,100875.02
2018-12-22T09:38:04.416Z,100879.42
2018-12-22T09:40:33.788Z,100889.53
2018-12-22T09:43:03.072Z,100882.89
2018-12-22T09:45:32.430Z,100891.28
2018-12-22T09:48:01.788Z,100898.27
2018-12-22T09:50:31.209Z,100902.70
2018-12-22T09:53:00.414Z,100913.21
2018-12-22T09:55:29.578Z,100910.27
2018-12-22T09:57:58.880Z,100918.55
2018-12-22T10:00:28.206Z,100920.33
2018-12-22T10:02:57.461Z,100924.35
2018-12-22T10:05:26.824Z,100927.39
2018-12-22T10:07:56.188Z,100926.98
2018-12-22T10:10:25.491Z,100939.72
2018-12-22T10:12:54.757Z,100952.03
2018-12-22T10:15:24.078Z,100956.07
2018-12-22T10:17:53.362Z,100954.68
2018-12-22T10:20:22.709Z,100952.81
2018-12-22T10:22:51.980Z,100959.47
2018-12-22T10:25:21.252Z,100961.27
2018-12-22T10:27:50.523Z,100964.34
2018-12-22T10:30:19.815Z,100979.13
2018-12-22T10:32:49.116Z,100980.40
2018-12-22T10:35:29.023Z,100972.86
2018-12-22T10:37:58.223Z,100985.12
2018-12-22T10:40:27.449Z,101000.38
2018-12-22T10:42:56.727Z,100991.38
2018-12-22T10:45:26.054Z,100999.68
2018-12-22T10:47:55.309Z,101007.05
2018-12-22T10:50:24.558Z,101004.88
2018-12-22T10:52:53.847Z,101012.70
2018-12-22T10:55:23.269Z,101015.34
2018-12-22T10:57:52.568Z,101011.39
2018-12-22T11:00:21.847Z,101020.88
2018-12-22T11:02:51.183Z,101021.38
2018-12-22T11:05:20.459Z,101030.20
2018-12-22T11:07:49.721Z,101032.85
2018-12-22T11:10:26.547Z,101028.97
2018-12-22T11:13:00.667Z,101025.16
2018-12-22T11:15:29.907Z,101036.16
2018-12-22T11:17:59.396Z,101042.44
2018-12-22T11:20:28.624Z,101051.40
2018-12-22T11:22:57.893Z,101039.21
2018-12-22T11:25:27.490Z,101057.13
2018-12-22T11:27:56.765Z,101058.83
2018-12-22T11:30:40.624Z,101067.67
2018-12-22T11:33:09.875Z,101062.45
2018-12-22T11:35:39.121Z,101074.37
2018-12-22T11:38:08.431Z,101068.33
2018-12-22T11:40:37.641Z,101081.37
2018-12-22T11:43:06.957Z,101082.22
2018-12-22T11:45:36.187Z,101087.14
2018-12-22T11:48:56.218Z,101080.11
2018-12-22T11:51:25.493Z,101081.83
2018-12-22T11:53:54.773Z,101096.83
2018-12-22T11:56:24.056Z,101090.23
2018-12-22T11:58:53.370Z,101099.92
2018-12-22T12:01:22.640Z,101098.99
2018-12-22T12:03:51.899Z,101094.28
2018-12-22T12:06:21.197Z,101098.66
2018-12-22T12:08:50.486Z,101097.48
2018-12-22T12:11:19.805Z,100936.07
2018-12-22T12:13:49.156Z,101106.62
2018-12-22T12:16:28.076Z,101099.71
2018-12-22T12:19:26.173Z,101103.67
2018-12-22T12:21:55.491Z,101115.05
2018-12-22T12:24:25.213Z,101120.86
2018-12-22T12:26:54.543Z,101129.28
2018-12-22T12:29:23.794Z,101131.91
2018-12-22T12:31:53.059Z,101143.30
2018-12-22T12:34:22.326Z,101141.58
2018-12-22T12:36:52.149Z,101148.22
2018-12-22T12:39:21.446Z,101143.86
2018-12-22T12:41:50.724Z,101144.16
2018-12-22T12:44:20.056Z,101144.07
2018-12-22T12:46:50.979Z,101146.38
2018-12-22T12:49:21.054Z,101140.20
2018-12-22T12:51:50.424Z,101141.58
2018-12-22T12:54:21.138Z,101147.28
2018-12-22T12:56:55.976Z,101150.73
2018-12-22T12:59:26.299Z,101156.11
2018-12-22T13:02:00.937Z,101159.19
2018-12-22T13:04:25.023Z,101171.50
2018-12-22T13:06:54.386Z,101164.91
2018-12-22T13:09:23.725Z,101170.18
2018-12-22T13:11:54.360Z,101157.94
2018-12-22T13:14:24.785Z,101161.02
2018-12-22T13:16:54.085Z,101163.60
2018-12-22T13:19:23.382Z,101174.53
2018-12-22T13:21:54.097Z,101169.15
2018-12-22T13:24:23.398Z,101173.05
2018-12-22T13:26:52.686Z,101179.84
2018-12-22T13:29:21.975Z,101174.72
2018-12-22T13:31:51.305Z,101175.71
2018-12-22T13:34:20.623Z,101171.34
2018-12-22T13:36:49.871Z,101169.96
2018-12-22T13:39:29.794Z,101168.70
2018-12-22T13:41:59.115Z,101169.96
2018-12-22T13:44:28.373Z,101163.44
2018-12-22T13:46:57.654Z,101166.23
2018-12-22T13:49:27.205Z,101171.20
2018-12-22T13:51:56.361Z,101172.19
2018-12-22T13:54:26.388Z,101174.09
2018-12-22T13:56:55.695Z,101181.16
2018-12-22T13:59:25.021Z,101186.42
2018-12-22T14:02:00.554Z,101185.63
2018-12-22T14:04:31.356Z,101195.69
2018-12-22T14:07:00.646Z,101186.47
2018-12-22T14:09:29.930Z,101186.47
2018-12-22T14:11:59.219Z,101183.39
2018-12-22T14:14:37.599Z,101189.05
2018-12-22T14:17:19.002Z,101187.68
2018-12-22T14:20:15.021Z,101191.84
2018-12-22T14:22:45.237Z,101183.91
2018-12-22T14:25:24.436Z,101186.60
2018-12-22T14:27:53.748Z,101188.41
2018-12-22T14:30:23.025Z,101190.00
2018-12-22T14:32:52.406Z,101200.19
2018-12-22T14:35:35.010Z,101190.59
2018-12-22T14:38:04.280Z,101199.75
2018-12-22T14:40:33.662Z,101207.50
2018-12-22T14:43:02.948Z,101202.95
2018-12-22T14:45:32.257Z,101204.14
2018-12-22T14:48:01.593Z,101207.55
2018-12-22T14:50:30.862Z,101213.56
2018-12-22T14:53:00.180Z,101220.27
2018-12-22T14:55:31.543Z,101212.24
2018-12-22T14:58:11.483Z,101219.94
2018-12-22T15:00:40.802Z,101212.48
2018-12-22T15:03:10.127Z,101213.88
2018-12-22T15:05:42.336Z,101215.11
2018-12-22T15:08:08.804Z,101225.27
2018-12-22T15:10:38.092Z,101227.30
2018-12-22T15:13:07.436Z,101216.73
2018-12-22T15:15:36.708Z,101224.64
2018-12-22T15:18:05.968Z,101230.88
2018-12-22T15:20:35.290Z,101239.16
2018-12-22T15:23:07.422Z,101236.53
2018-12-22T15:25:36.744Z,101235.94
2018-12-22T15:28:06.006Z,101238.19
2018-12-22T15:30:35.290Z,101244.05
2018-12-22T15:33:04.714Z,101237.00
2018-12-22T15:35:34.024Z,101245.03
2018-12-22T15:38:03.336Z,101253.73
2018-12-22T15:40:32.594Z,101259.48
2018-12-22T15:43:02.037Z,101258.70
2018-12-22T15:45:31.395Z,101263.74
2018-12-22T15:48:00.733Z,101262.09
2018-12-22T15:50:32.074Z,101256.83
2018-12-22T15:53:01.410Z,101267.92
2018-12-22T15:55:30.679Z,101267.16
2018-12-22T15:57:59.941Z,101271.15
2018-12-22T16:00:29.232Z,101273.45
2018-12-22T16:02:58.559Z,101270.43
2018-12-22T16:05:27.896Z,101284.91
2018-12-22T16:07:57.156Z,101287.34
2018-12-22T16:10:26.541Z,101290.84
2018-12-22T16:12:55.867Z,101285.17
2018-12-22T16:15:25.748Z,101292.75
2018-12-22T16:17:54.960Z,101291.91
2018-12-22T16:20:24.298Z,101280.87
2018-12-22T16:23:03.806Z,101284.33
2018-12-22T16:25:33.232Z,101290.89
2018-12-22T16:28:27.070Z,101301.00
2018-12-22T16:30:58.065Z,101311.39
2018-12-22T16:33:27.367Z,101300.92
2018-12-22T16:35:56.899Z,101299.62
2018-12-22T16:38:26.276Z,101308.91
2018-12-22T16:40:55.588Z,101305.33
2018-12-22T16:43:24.902Z,101298.84
2018-12-22T16:45:54.166Z,101311.61
2018-12-22T16:48:24.776Z,101326.90
2018-12-22T16:50:54.091Z,101312.45
2018-12-22T16:53:23.408Z,101319.06
2018-12-22T16:55:52.788Z,101327.09
2018-12-22T16:58:36.965Z,101317.36
2018-12-22T17:01:19.660Z,101325.27
2018-12-22T17:03:49.051Z,101310.30
2018-12-22T17:06:18.296Z,101321.69
2018-12-22T17:08:47.604Z,101328.63
2018-12-22T17:11:16.886Z,101336.13
2018-12-22T17:13:47.295Z,101337.98
2018-12-22T17:16:17.455Z,101336.25
2018-12-22T17:18:46.820Z,101329.53
2018-12-22T17:21:32.275Z,101349.25
2018-12-22T17:24:44.382Z,101354.98
2018-12-22T17:27:13.652Z,101348.39
2018-12-22T17:29:42.986Z,101354.06
2018-12-22T17:32:12.251Z,101351.48
2018-12-22T17:34:41.538Z,101364.23
2018-12-22T17:37:11.165Z,101362.44
2018-12-22T17:39:40.839Z,101377.08
2018-12-22T17:42:10.304Z,101359.84
2018-12-22T17:44:39.595Z,101373.52
2018-12-22T17:47:08.889Z,101380.90
2018-12-22T17:49:38.211Z,101373.11
2018-12-22T17:52:07.625Z,101380.83
2018-12-22T17:54:36.895Z,101394.88
2018-12-22T17:57:06.211Z,101400.16
2018-12-22T17:59:35.483Z,101411.69
2018-12-22T18:02:04.825Z,101402.73
2018-12-22T18:04:34.225Z,101398.83
2018-12-22T18:07:03.531Z,101405.36
2018-12-22T18:09:32.832Z,101402.78
2018-12-22T18:12:02.141Z,101408.47
2018-12-22T18:14:31.425Z,101418.55
2018-12-22T18:17:00.709Z,101419.08
2018-12-22T18:19:30.066Z,101424.30
2018-12-22T18:21:59.351Z,101421.70
2018-12-22T18:24:28.590Z,101440.17
2018-12-22T18:26:57.906Z,101437.55
2018-12-22T18:29:27.145Z,101438.52
2018-12-22T18:31:56.519Z,101431.06
2018-12-22T18:34:25.814Z,101446.37
2018-12-22T18:36:55.867Z,101451.70
2018-12-22T18:39:25.168Z,101457.03
2018-12-22T18:41:54.537Z,101452.63
2018-12-22T18:44:23.803Z,101475.09
2018-12-22T18:46:53.046Z,101473.78
2018-12-22T18:49:22.332Z,101466.34
2018-12-22T18:51:51.614Z,101473.39
2018-12-22T18:54:20.886Z,101458.43
2018-12-22T18:56:50.231Z,101455.73
2018-12-22T18:59:20.605Z,101476.53
2018-12-22T19:01:49.975Z,101467.30
2018-12-22T19:04:19.277Z,101467.77
2018-12-22T19:06:48.569Z,101479.23
2018-12-22T19:09:26.691Z,101478.02
2018-12-22T19:11:56.077Z,101479.35
2018-12-22T19:14:25.341Z,101489.90
2018-12-22T19:16:54.621Z,101475.84
2018-12-22T19:19:24.007Z,101486.84
2018-12-22T19:21:53.373Z,101477.61
2018-12-22T19:24:22.695Z,101494.20
2018-12-22T19:26:52.100Z,101507.38
2018-12-22T19:29:21.421Z,101499.92
2018-12-22T19:31:50.734Z,101511.31
2018-12-22T19:34:20.084Z,101513.05
2018-12-22T19:36:49.329Z,101508.19
2018-12-22T19:39:18.657Z,101518.27
2018-12-22T19:41:48.013Z,101523.12
2018-12-22T19:44:17.319Z,101529.22
2018-12-22T19:46:46.755Z,101540.67
2018-12-22T19:49:16.083Z,101541.03
2018-12-22T19:51:45.415Z,101547.27
2018-12-22T19:54:14.663Z,101548.14
2018-12-22T19:56:43.956Z,101551.63
2018-12-22T19:59:13.219Z,101560.85
2018-12-22T20:01:42.543Z,101567.04
2018-12-22T20:04:11.807Z,101578.91
2018-12-22T20:06:41.115Z,101571.92
2018-12-22T20:09:10.361Z,101581.20
2018-12-22T20:11:39.685Z,101598.28
2018-12-22T20:14:08.974Z,101604.02
2018-12-22T20:16:38.332Z,101599.28
2018-12-22T20:19:07.603Z,101607.61
2018-12-22T20:21:37.398Z,101622.56
2018-12-22T20:24:06.707Z,101616.89
2018-12-22T20:26:36.030Z,101623.03
2018-12-22T20:29:05.310Z,101630.98
2018-12-22T20:31:34.650Z,101638.06
2018-12-22T20:34:10.963Z,101636.75
2018-12-22T20:36:33.216Z,101633.67
2018-12-22T20:39:02.533Z,101646.39
2018-12-22T20:41:31.971Z,101643.35
2018-12-22T20:44:01.237Z,101654.34
2018-12-22T20:46:30.515Z,101664.44
2018-12-22T20:48:59.784Z,101664.02
2018-12-22T20:51:29.054Z,101666.66
2018-12-22T20:54:00.162Z,101673.70
2018-12-22T20:56:29.490Z,101679.02
2018-12-22T20:58:58.794Z,101679.92
2018-12-22T21:01:28.045Z,101689.19
2018-12-22T21:03:57.364Z,101687.46
2018-12-22T21:06:33.060Z,101694.05
2018-12-22T21:09:02.359Z,101702.45
2018-12-22T21:11:31.757Z,101706.41
2018-12-22T21:14:01.101Z,101707.27
2018-12-22T21:16:30.454Z,101703.35
2018-12-22T21:18:59.710Z,101705.53
2018-12-22T21:21:28.970Z,101709.53
2018-12-22T21:23:58.258Z,101717.89
2018-12-22T21:26:27.501Z,101733.28
2018-12-22T21:28:56.846Z,101734.60
2018-12-22T21:31:26.125Z,101737.72
2018-12-22T21:33:55.483Z,101738.20
2018-12-22T21:36:24.748Z,101746.56
2018-12-22T21:38:54.103Z,101748.75
2018-12-22T21:41:23.373Z,101752.28
2018-12-22T21:43:52.647Z,101759.77
2018-12-22T21:46:21.955Z,101750.13
2018-12-22T21:48:51.221Z,101753.70
2018-12-22T21:51:20.551Z,101753.67
2018-12-22T21:53:49.851Z,101756.34
2018-12-22T21:56:19.109Z,101767.35
2018-12-22T21:58:48.579Z,101773.91
2018-12-22T22:01:17.875Z,101776.57
2018-12-22T22:03:47.124Z,101783.64
2018-12-22T22:06:16.497Z,101779.69
2018-12-22T22:08:45.779Z,101786.69
2018-12-22T22:11:15.089Z,101787.55
2018-12-22T22:13:44.363Z,101790.61
2018-12-22T22:16:13.671Z,101781.84
2018-12-22T22:18:42.929Z,101787.56
2018-12-22T22:21:12.310Z,101793.22
2018-12-22T22:23:41.611Z,101792.83
2018-12-22T22:26:10.920Z,101792.83
2018-12-22T22:28:40.242Z,101799.37
2018-12-22T22:31:09.556Z,101798.54
2018-12-22T22:33:38.834Z,101796.83
2018-12-22T22:36:08.203Z,101798.18
2018-12-22T22:38:37.474Z,101803.86
2018-12-22T22:41:06.779Z,101808.23
2018-12-22T22:43:36.006Z,101809.13
2018-12-22T22:46:05.272Z,101815.30
2018-12-22T22:48:34.531Z,101815.18
2018-12-22T22:51:03.835Z,101821.31
2018-12-22T22:53:33.171Z,101818.69
2018-12-22T22:56:14.735Z,101811.67
2018-12-22T22:58:44.019Z,101816.53
2018-12-22T23:01:13.351Z,101818.59
2018-12-22T23:03:42.701Z,101815.09
2018-12-22T23:06:12.003Z,101815.55
2018-12-22T23:08:41.425Z,101812.84
2018-12-22T23:11:10.779Z,101798.45
2018-12-22T23:13:41.209Z,101797.61
2018-12-22T23:16:13.849Z,101803.30
2018-12-22T23:18:43.811Z,101802.79
2018-12-22T23:21:13.237Z,101801.05
2018-12-22T23:23:43.919Z,101804.97
2018-12-22T23:26:14.100Z,101815.99
2018-12-22T23:28:44.894Z,101819.88
2018-12-22T23:31:15.727Z,101815.06
2018-12-22T23:33:47.219Z,101810.72
2018-12-22T23:36:18.879Z,101815.99
2018-12-22T23:38:50.936Z,101813.36
2018-12-22T23:41:21.531Z,101807.22
2018-12-22T23:43:52.201Z,101812.91
2018-12-22T23:46:22.972Z,101816.89
2018-12-22T23:48:53.669Z,101807.70
2018-12-22T23:51:23.592Z,101809.95
2018-12-22T23:53:53.432Z,101799.83
2018-12-22T23:56:23.257Z,101806.86
2018-12-22T23:58:56.015Z,101811.20
